• Join FlightAware (Why Join?)
  • Login
  • US Flag 
02:17AM EDT


 

Airport Tracker/Info


-or-


 

Live Flight TrackerFlight Track Log ✈ N850MK ✈ 06-May-2012 ✈ KPDK - KISM

Flight Track Log - Related Links

Times and Time Zones

All times are in EDT time to prevent confusion due to time zone crossing. See the N850MK flight status page for this flight to view local times or setup timezone preferences in your user account.

Time Position Orientation Groundspeed Altitude Reporting Facility
EDT Latitude Longitude Course Direction KTS MPH feet Rate Location/Type
04:13PM 33.9000 -84.3000 15° North 126 145 2,100  Level Atlanta TRACON
04:14PM 33.9500 -84.2833 112° Southeast 169 194 3,300 900 Climbing Atlanta TRACON
04:15PM 33.9333 -84.2333 140° Southeast 188 216 4,000 300 Climbing Atlanta TRACON
04:16PM 33.9000 -84.2000 151° Southeast 202 232 3,900  Descending Atlanta TRACON
04:17PM 33.8500 -84.1667 140° Southeast 178 205 4,000  Climbing Atlanta TRACON
04:18PM 33.8167 -84.1333 151° Southeast 171 197 4,000 -60 Level Atlanta TRACON
04:19PM 33.7667 -84.1000 140° Southeast 168 193 3,900  Descending Atlanta TRACON
04:20PM 33.7333 -84.0667 151° Southeast 170 196 4,000  Climbing Atlanta TRACON
04:21PM 33.6833 -84.0333 140° Southeast 197 227 4,000 660 Level Atlanta TRACON
04:22PM 33.6500 -84.0000 180° South 197 227 5,400 1,440 Climbing Atlanta TRACON
04:23PM 33.6000 -84.0000 180° South 187 215 6,800 780 Climbing Atlanta TRACON
04:24PM 33.5333 -84.0000 180° South 216 249 7,000 60 Climbing Atlanta TRACON
04:25PM 33.4667 -84.0000 193° South 237 273 7,000 660 Level Atlanta TRACON
04:27PM 33.3500 -84.0333 189° South 240 276 9,000 660 Climbing Atlanta TRACON
04:28PM 33.2667 -84.0500 181° South 265 305 9,000 120 Level Atlanta TRACON
04:29PM 33.2119 -84.0511 161° South 279 321 9,300 900 Climbing Atlanta Center
04:30PM 33.1533 -84.0264 157° South 241 277 10,900 840 Climbing Atlanta Center
04:31PM 33.0886 -83.9942 157° South 240 276 11,000 180 Climbing Atlanta Center
04:32PM 33.0136 -83.9569 158° South 262 302 11,300 1,260 Climbing Atlanta Center
04:33PM 32.9531 -83.9275 154° Southeast 255 293 13,600 1,980 Climbing Atlanta Center
04:34PM 32.9008 -83.8978 157° South 229 264 15,300 1,800 Climbing Atlanta Center
04:35PM 32.8464 -83.8706 156° South 218 251 17,200 1,740 Climbing Atlanta Center
04:36PM 32.7900 -83.8411 157° South 212 244 18,800 1,320 Climbing Atlanta Center
04:37PM 32.7317 -83.8117 157° South 218 251 19,900 900 Climbing Atlanta Center
04:38PM 32.6669 -83.7797 156° South 232 267 20,700 1,260 Climbing Atlanta Center
04:39PM 32.6061 -83.7478 157° South 239 275 22,500 1,800 Climbing Atlanta Center
04:40PM 32.5478 -83.7186 157° South 239 275 24,300 1,200 Climbing Atlanta Center
04:41PM 32.4850 -83.6867 158° South 233 268 25,000 300 Climbing Atlanta Center
04:42PM 32.4056 -83.6478 157° South 260 299 25,000  Level Atlanta Center
04:43PM 32.3261 -83.6086 156° South 288 331 25,000  Level Atlanta Center
04:45PM 32.2128 -83.5481 147° Southeast 316 364 25,000  Level Jacksonville Center
04:46PM 32.1358 -83.4886 138° Southeast 321 369 25,000  Level Jacksonville Center
04:47PM 32.0694 -83.4172 125° Southeast 321 369 25,000  Level Jacksonville Center
04:48PM 32.0175 -83.3286 124° Southeast 321 369 25,000  Level Jacksonville Center
04:49PM 31.9678 -83.2428 124° Southeast 321 369 25,000  Level Jacksonville Center
04:50PM 31.9136 -83.1494 125° Southeast 321 369 25,000  Level Jacksonville Center
04:51PM 31.8636 -83.0639 124° Southeast 315 362 25,000  Level Jacksonville Center
04:52PM 31.8158 -82.9806 125° Southeast 315 362 25,000  Level Jacksonville Center
04:53PM 31.7656 -82.8950 124° Southeast 310 357 25,000  Level Jacksonville Center
04:54PM 31.7156 -82.8094 125° Southeast 310 357 25,000  Level Jacksonville Center
04:55PM 31.6653 -82.7267 124° Southeast 310 357 25,000  Level Jacksonville Center
04:56PM 31.6172 -82.6436 127° Southeast 310 357 25,000  Level Jacksonville Center
04:57PM 31.5647 -82.5611 123° Southeast 310 357 25,000  Level Jacksonville Center
04:58PM 31.5164 -82.4733 126° Southeast 310 357 25,000  Level Jacksonville Center
04:59PM 31.4639 -82.3883 128° Southeast 310 357 25,000  Level Jacksonville Center
05:00PM 31.4114 -82.3083 103° East 310 357 25,000  Level Jacksonville Center
05:01PM 31.3900 -82.2014 103° East 316 364 25,100 420 Climbing Jacksonville Center
05:02PM 31.3706 -82.1042 101° East 316 364 25,900 420 Climbing Jacksonville Center
05:03PM 31.3556 -82.0167 100° East 311 358 26,000  Climbing Jacksonville Center
05:04PM 31.3381 -81.9050 104° East 317 365 26,000  Level Jacksonville Center
05:05PM 31.3164 -81.8031 101° East 317 365 26,000  Level Jacksonville Center
05:06PM 31.2986 -81.6989 98° East 324 373 26,000  Level Jacksonville Center
05:07PM 31.2850 -81.5919 101° East 324 373 26,000  Level Jacksonville Center
05:08PM 31.2672 -81.4828 102° East 334 384 26,000  Level Jacksonville Center
05:09PM 31.2472 -81.3761 103° East 334 384 26,000  Level Jacksonville Center
05:10PM 31.2269 -81.2697 108° East 329 379 26,000  Level Jacksonville Center
05:11PM 31.1986 -81.1706 163° South 335 386 26,000  Level Jacksonville Center
05:12PM 31.1167 -81.1406 178° South 280 322 26,000  Level Jacksonville Center
05:13PM 31.0353 -81.1372 181° South 273 314 26,000  Level Jacksonville Center
05:14PM 30.9622 -81.1386 179° South 273 314 26,000  Level Jacksonville Center
05:15PM 30.8869 -81.1375 181° South 274 315 26,000  Level Jacksonville Center
05:16PM 30.8139 -81.1389 179° South 274 315 26,000  Level Jacksonville Center
05:17PM 30.7408 -81.1378 179° South 274 315 26,000  Level Jacksonville Center
05:18PM 30.6678 -81.1367 178° South 274 315 26,000  Level Jacksonville Center
05:19PM 30.5947 -81.1333 181° South 274 315 26,000 -60 Level Jacksonville Center
05:20PM 30.5175 -81.1347 179° South 274 315 25,900 -600 Descending Jacksonville Center
05:21PM 30.4403 -81.1336 179° South 274 315 24,900 -1,080 Descending Jacksonville Center
05:22PM 30.3733 -81.1325 179° South 268 308 23,800 -1,200 Descending Jacksonville Center
05:23PM 30.3025 -81.1314 179° South 256 295 22,600 -1,200 Descending Jacksonville Center
05:24PM 30.2208 -81.1306 179° South 264 304 21,500 -900 Descending Jacksonville Center
05:27PM 29.9767 -81.1278 179° South 290 334 19,100 -600 Descending Jacksonville Center
05:28PM 29.8972 -81.1267 181° South 290 334 19,100  Level Jacksonville Center
05:29PM 29.8181 -81.1283 179° South 290 334 19,100 -780 Level Jacksonville Center
05:33PM 29.5089 -81.1242 176° South 285 328 15,200 -1,020 Descending Jacksonville Center
05:38PM 29.1833 -81.1000 180° South 240 276 10,300 -900 Descending Orlando TRACON
05:39PM 29.1167 -81.1000 180° South 226 260 10,100 -120 Descending Orlando TRACON
05:40PM 29.0667 -81.1000 192° South 220 253 10,100  Level Orlando TRACON
05:41PM 29.0000 -81.1167 180° South 219 252 10,100 -240 Level Orlando TRACON
05:42PM 28.9500 -81.1167 180° South 191 220 9,700 -900 Descending Orlando TRACON
05:43PM 28.8833 -81.1167 177° South 229 264 8,400 -780 Descending Orlando TRACON
05:44PM 28.8242 -81.1128 187° South 220 253 8,100 -180 Descending Jacksonville Center
05:45PM 28.7658 -81.1211 192° South 220 253 8,100  Level Jacksonville Center
05:46PM 28.7167 -81.1333 213° Southwest 222 255 8,100 -180 Level Orlando TRACON
05:47PM 28.6500 -81.1833 221° Southwest 219 252 7,800 -780 Descending Orlando TRACON
05:48PM 28.6167 -81.2167 233° Southwest 195 224 6,600 -1,440 Descending Orlando TRACON
05:49PM 28.5833 -81.2667 233° Southwest 187 215 5,100 -720 Descending Orlando TRACON
05:50PM 28.5500 -81.3167 249° West 196 226 5,100 -300 Level Orlando TRACON
05:51PM 28.5333 -81.3667 233° Southwest 171 197 4,500 -960 Descending Orlando TRACON
05:52PM 28.5000 -81.4167 240° Southwest 170 196 3,200 -780 Descending Orlando TRACON
05:53PM 28.4833 -81.4500 233° Southwest 164 189 3,100 -540 Descending Orlando TRACON
05:54PM 28.4500 -81.5000 180° South 164 189 2,200 -600 Descending Orlando TRACON
05:55PM 28.4167 -81.5000 156° South 137 158 2,000 -300 Descending Orlando TRACON
05:56PM 28.3833 -81.4833 139° Southeast 131 151 1,600 -420 Descending Orlando TRACON
05:57PM 28.3500 -81.4500 139° Southeast 131 151 1,200 -300 Descending Orlando TRACON
05:58PM 28.3333 -81.4333 139° Southeast 101 116 1,100 -300 Descending Orlando TRACON
05:59PM 28.3167 -81.4167 139° Southeast 91 105 700 -420 Descending Orlando TRACON
06:07PM 27.8167 -80.9198 139° Southeast  Level FlightAware Approximate